sensor_id;sensor_type;location;lat;lon;timestamp;temperature;humidity
7684;DHT22;3884;48.616;12.872;2022-09-27T00:01:30;11.60;93.80
7684;DHT22;3884;48.616;12.872;2022-09-27T00:03:57;11.60;99.90
7684;DHT22;3884;48.616;12.872;2022-09-27T00:06:26;11.60;1.00
7684;DHT22;3884;48.616;12.872;2022-09-27T00:08:56;11.50;94.00
7684;DHT22;3884;48.616;12.872;2022-09-27T00:11:26;11.40;99.90
7684;DHT22;3884;48.616;12.872;2022-09-27T00:13:53;11.50;99.90
7684;DHT22;3884;48.616;12.872;2022-09-27T00:16:21;11.40;99.90
7684;DHT22;3884;48.616;12.872;2022-09-27T00:18:48;11.40;1.00
7684;DHT22;3884;48.616;12.872;2022-09-27T00:21:15;11.50;1.00
7684;DHT22;3884;48.616;12.872;2022-09-27T00:23:42;11.40;1.00
7684;DHT22;3884;48.616;12.872;2022-09-27T00:26:12;11.30;95.00
7684;DHT22;3884;48.616;12.872;2022-09-27T00:28:39;11.30;1.00
7684;DHT22;3884;48.616;12.872;2022-09-27T00:31:16;11.40;1.00
7684;DHT22;3884;48.616;12.872;2022-09-27T00:33:45;11.40;1.00
7684;DHT22;3884;48.616;12.872;2022-09-27T00:36:12;11.40;1.00
7684;DHT22;3884;48.616;12.872;2022-09-27T00:38:40;11.50;99.90
7684;DHT22;3884;48.616;12.872;2022-09-27T00:41:08;11.40;99.90
7684;DHT22;3884;48.616;12.872;2022-09-27T00:43:47;11.50;81.50
7684;DHT22;3884;48.616;12.872;2022-09-27T00:46:18;11.50;1.00
7684;DHT22;3884;48.616;12.872;2022-09-27T00:48:47;11.50;1.00
7684;DHT22;3884;48.616;12.872;2022-09-27T00:51:15;11.40;1.00
7684;DHT22;3884;48.616;12.872;2022-09-27T00:53:44;11.40;1.00
7684;DHT22;3884;48.616;12.872;2022-09-27T00:56:18;11.40;1.00
7684;DHT22;3884;48.616;12.872;2022-09-27T00:58:52;11.60;1.00
7684;DHT22;3884;48.616;12.872;2022-09-27T01:01:20;11.60;99.90
7684;DHT22;3884;48.616;12.872;2022-09-27T01:03:51;11.40;95.90
7684;DHT22;3884;48.616;12.872;2022-09-27T01:06:20;11.40;52.40
7684;DHT22;3884;48.616;12.872;2022-09-27T01:08:47;11.30;99.90
7684;DHT22;3884;48.616;12.872;2022-09-27T01:11:22;11.40;99.90
7684;DHT22;3884;48.616;12.872;2022-09-27T01:14:03;11.40;1.00
7684;DHT22;3884;48.616;12.872;2022-09-27T01:16:40;11.40;1.00
7684;DHT22;3884;48.616;12.872;2022-09-27T01:19:18;11.50;99.90
7684;DHT22;3884;48.616;12.872;2022-09-27T01:21:53;11.40;1.00
7684;DHT22;3884;48.616;12.872;2022-09-27T01:24:52;11.40;1.00
7684;DHT22;3884;48.616;12.872;2022-09-27T01:27:44;11.40;1.00
7684;DHT22;3884;48.616;12.872;2022-09-27T01:30:19;11.20;1.00
7684;DHT22;3884;48.616;12.872;2022-09-27T01:35:49;11.10;99.90
7684;DHT22;3884;48.616;12.872;2022-09-27T01:38:23;11.10;99.90
7684;DHT22;3884;48.616;12.872;2022-09-27T01:40:57;11.20;1.00
7684;DHT22;3884;48.616;12.872;2022-09-27T01:43:42;11.10;1.00
7684;DHT22;3884;48.616;12.872;2022-09-27T01:46:17;11.00;99.90
7684;DHT22;3884;48.616;12.872;2022-09-27T01:49:08;11.10;99.90
7684;DHT22;3884;48.616;12.872;2022-09-27T01:51:39;11.00;99.90
7684;DHT22;3884;48.616;12.872;2022-09-27T01:54:13;11.00;99.90
7684;DHT22;3884;48.616;12.872;2022-09-27T01:56:47;10.80;99.90
7684;DHT22;3884;48.616;12.872;2022-09-27T01:59:22;10.90;99.90
7684;DHT22;3884;48.616;12.872;2022-09-27T02:02:07;10.90;99.90
7684;DHT22;3884;48.616;12.872;2022-09-27T02:04:58;10.90;99.90
7684;DHT22;3884;48.616;12.872;2022-09-27T02:07:30;10.90;1.00
7684;DHT22;3884;48.616;12.872;2022-09-27T02:10:00;11.00;1.00
7684;DHT22;3884;48.616;12.872;2022-09-27T02:12:41;11.00;1.00
7684;DHT22;3884;48.616;12.872;2022-09-27T02:15:13;11.10;99.90
7684;DHT22;3884;48.616;12.872;2022-09-27T02:17:54;11.20;1.00
7684;DHT22;3884;48.616;12.872;2022-09-27T02:20:28;11.20;99.90
7684;DHT22;3884;48.616;12.872;2022-09-27T02:23:01;11.30;99.90
7684;DHT22;3884;48.616;12.872;2022-09-27T02:25:35;11.40;99.60
7684;DHT22;3884;48.616;12.872;2022-09-27T02:28:12;11.50;99.90
7684;DHT22;3884;48.616;12.872;2022-09-27T02:30:41;11.60;99.90
7684;DHT22;3884;48.616;12.872;2022-09-27T02:33:27;11.50;1.00
7684;DHT22;3884;48.616;12.872;2022-09-27T02:35:55;11.40;99.90
7684;DHT22;3884;48.616;12.872;2022-09-27T02:38:23;11.40;41.80
7684;DHT22;3884;48.616;12.872;2022-09-27T02:40:51;11.30;1.00
7684;DHT22;3884;48.616;12.872;2022-09-27T02:43:20;11.20;99.90
7684;DHT22;3884;48.616;12.872;2022-09-27T02:45:59;11.00;99.90
7684;DHT22;3884;48.616;12.872;2022-09-27T02:48:37;10.90;99.90
7684;DHT22;3884;48.616;12.872;2022-09-27T02:51:37;10.80;99.90
7684;DHT22;3884;48.616;12.872;2022-09-27T02:54:18;10.70;99.90
7684;DHT22;3884;48.616;12.872;2022-09-27T02:57:10;10.70;99.90
7684;DHT22;3884;48.616;12.872;2022-09-27T03:00:03;10.70;99.90
7684;DHT22;3884;48.616;12.872;2022-09-27T03:02:46;10.80;99.90
7684;DHT22;3884;48.616;12.872;2022-09-27T03:05:41;10.60;99.90
7684;DHT22;3884;48.616;12.872;2022-09-27T03:08:09;10.60;99.90
7684;DHT22;3884;48.616;12.872;2022-09-27T03:10:38;10.60;99.90
7684;DHT22;3884;48.616;12.872;2022-09-27T03:13:05;10.70;99.90
7684;DHT22;3884;48.616;12.872;2022-09-27T03:15:32;10.70;99.90
7684;DHT22;3884;48.616;12.872;2022-09-27T03:17:59;10.60;99.90
7684;DHT22;3884;48.616;12.872;2022-09-27T03:20:46;10.60;99.90
7684;DHT22;3884;48.616;12.872;2022-09-27T03:23:16;10.60;99.90
7684;DHT22;3884;48.616;12.872;2022-09-27T03:25:43;10.50;99.90
7684;DHT22;3884;48.616;12.872;2022-09-27T03:28:11;10.50;99.90
7684;DHT22;3884;48.616;12.872;2022-09-27T03:30:40;10.60;99.90
7684;DHT22;3884;48.616;12.872;2022-09-27T03:33:08;10.60;99.90
7684;DHT22;3884;48.616;12.872;2022-09-27T03:36:06;10.60;99.90
7684;DHT22;3884;48.616;12.872;2022-09-27T03:38:33;10.40;99.90
7684;DHT22;3884;48.616;12.872;2022-09-27T03:41:00;10.40;99.90
7684;DHT22;3884;48.616;12.872;2022-09-27T03:43:29;10.40;99.90
7684;DHT22;3884;48.616;12.872;2022-09-27T03:46:00;10.40;99.90
7684;DHT22;3884;48.616;12.872;2022-09-27T03:48:27;10.40;99.90
7684;DHT22;3884;48.616;12.872;2022-09-27T03:50:55;10.40;99.90
7684;DHT22;3884;48.616;12.872;2022-09-27T03:53:24;10.50;99.90
7684;DHT22;3884;48.616;12.872;2022-09-27T03:55:52;10.30;99.90
7684;DHT22;3884;48.616;12.872;2022-09-27T03:58:19;10.30;99.90
7684;DHT22;3884;48.616;12.872;2022-09-27T04:00:46;10.30;99.90
7684;DHT22;3884;48.616;12.872;2022-09-27T04:03:13;10.30;99.90
7684;DHT22;3884;48.616;12.872;2022-09-27T04:05:49;10.30;99.90
7684;DHT22;3884;48.616;12.872;2022-09-27T04:08:24;10.20;99.90
7684;DHT22;3884;48.616;12.872;2022-09-27T04:10:51;10.30;99.90
7684;DHT22;3884;48.616;12.872;2022-09-27T04:13:18;10.30;99.90
7684;DHT22;3884;48.616;12.872;2022-09-27T04:15:52;10.30;99.90
7684;DHT22;3884;48.616;12.872;2022-09-27T04:18:38;10.30;99.90
7684;DHT22;3884;48.616;12.872;2022-09-27T04:21:34;10.30;99.90
7684;DHT22;3884;48.616;12.872;2022-09-27T04:24:03;10.30;99.90
7684;DHT22;3884;48.616;12.872;2022-09-27T04:26:31;10.20;99.90
7684;DHT22;3884;48.616;12.872;2022-09-27T04:29:01;10.20;99.90
7684;DHT22;3884;48.616;12.872;2022-09-27T04:31:30;10.20;99.90
7684;DHT22;3884;48.616;12.872;2022-09-27T04:34:16;10.20;99.90
7684;DHT22;3884;48.616;12.872;2022-09-27T04:37:07;10.20;99.90
7684;DHT22;3884;48.616;12.872;2022-09-27T04:39:39;10.20;99.90
7684;DHT22;3884;48.616;12.872;2022-09-27T04:42:06;10.20;99.90
7684;DHT22;3884;48.616;12.872;2022-09-27T04:44:33;10.20;99.90
7684;DHT22;3884;48.616;12.872;2022-09-27T04:47:00;10.10;99.90
7684;DHT22;3884;48.616;12.872;2022-09-27T04:49:27;10.10;99.90
7684;DHT22;3884;48.616;12.872;2022-09-27T04:51:54;10.10;99.90
7684;DHT22;3884;48.616;12.872;2022-09-27T04:54:22;10.10;99.90
7684;DHT22;3884;48.616;12.872;2022-09-27T04:56:59;9.90;99.90
7684;DHT22;3884;48.616;12.872;2022-09-27T04:59:26;10.00;99.90
7684;DHT22;3884;48.616;12.872;2022-09-27T05:01:53;9.90;99.90
7684;DHT22;3884;48.616;12.872;2022-09-27T05:04:52;9.90;99.90
7684;DHT22;3884;48.616;12.872;2022-09-27T05:07:21;10.00;99.90
7684;DHT22;3884;48.616;12.872;2022-09-27T05:09:54;10.00;99.90
7684;DHT22;3884;48.616;12.872;2022-09-27T05:12:23;10.00;99.90
7684;DHT22;3884;48.616;12.872;2022-09-27T05:14:59;10.00;99.90
7684;DHT22;3884;48.616;12.872;2022-09-27T05:17:29;10.00;99.90
7684;DHT22;3884;48.616;12.872;2022-09-27T05:20:14;10.00;99.90
7684;DHT22;3884;48.616;12.872;2022-09-27T05:23:02;10.00;99.90
7684;DHT22;3884;48.616;12.872;2022-09-27T05:25:30;10.00;99.90
7684;DHT22;3884;48.616;12.872;2022-09-27T05:27:59;10.00;99.90
7684;DHT22;3884;48.616;12.872;2022-09-27T05:30:26;10.10;99.90
7684;DHT22;3884;48.616;12.872;2022-09-27T05:33:03;10.00;99.90
7684;DHT22;3884;48.616;12.872;2022-09-27T05:35:42;10.10;99.90
7684;DHT22;3884;48.616;12.872;2022-09-27T05:38:12;10.10;99.90
7684;DHT22;3884;48.616;12.872;2022-09-27T05:40:42;10.10;99.90
7684;DHT22;3884;48.616;12.872;2022-09-27T05:43:13;10.10;99.90
7684;DHT22;3884;48.616;12.872;2022-09-27T05:45:40;10.10;99.90
7684;DHT22;3884;48.616;12.872;2022-09-27T05:48:08;10.10;99.90
7684;DHT22;3884;48.616;12.872;2022-09-27T05:50:44;10.10;99.90
7684;DHT22;3884;48.616;12.872;2022-09-27T05:53:11;10.10;99.90
7684;DHT22;3884;48.616;12.872;2022-09-27T05:55:39;10.20;99.90
7684;DHT22;3884;48.616;12.872;2022-09-27T05:58:08;10.20;99.90
7684;DHT22;3884;48.616;12.872;2022-09-27T06:00:43;10.20;99.90
7684;DHT22;3884;48.616;12.872;2022-09-27T06:03:39;10.20;99.90
7684;DHT22;3884;48.616;12.872;2022-09-27T06:06:09;10.20;99.90
7684;DHT22;3884;48.616;12.872;2022-09-27T06:08:44;10.30;99.90
7684;DHT22;3884;48.616;12.872;2022-09-27T06:11:14;10.30;99.90
7684;DHT22;3884;48.616;12.872;2022-09-27T06:13:41;10.30;99.90
7684;DHT22;3884;48.616;12.872;2022-09-27T06:16:11;10.20;99.90
7684;DHT22;3884;48.616;12.872;2022-09-27T06:18:41;10.20;99.90
7684;DHT22;3884;48.616;12.872;2022-09-27T06:21:09;10.20;99.90
7684;DHT22;3884;48.616;12.872;2022-09-27T06:23:36;10.40;99.90
7684;DHT22;3884;48.616;12.872;2022-09-27T06:26:17;10.40;99.90
7684;DHT22;3884;48.616;12.872;2022-09-27T06:29:10;10.20;99.90
7684;DHT22;3884;48.616;12.872;2022-09-27T06:31:45;10.20;99.90
7684;DHT22;3884;48.616;12.872;2022-09-27T06:34:27;10.30;99.90
7684;DHT22;3884;48.616;12.872;2022-09-27T06:36:54;10.40;99.90
7684;DHT22;3884;48.616;12.872;2022-09-27T06:39:23;10.40;99.90
7684;DHT22;3884;48.616;12.872;2022-09-27T06:41:59;10.40;99.90
7684;DHT22;3884;48.616;12.872;2022-09-27T06:44:46;10.50;99.90
7684;DHT22;3884;48.616;12.872;2022-09-27T06:47:36;10.50;99.90
7684;DHT22;3884;48.616;12.872;2022-09-27T06:50:21;10.40;99.90
7684;DHT22;3884;48.616;12.872;2022-09-27T06:52:48;10.40;99.90
7684;DHT22;3884;48.616;12.872;2022-09-27T06:55:17;10.50;99.90
7684;DHT22;3884;48.616;12.872;2022-09-27T06:57:44;10.50;99.90
7684;DHT22;3884;48.616;12.872;2022-09-27T07:00:29;10.50;99.90
7684;DHT22;3884;48.616;12.872;2022-09-27T07:03:17;10.50;99.90
7684;DHT22;3884;48.616;12.872;2022-09-27T07:06:16;10.50;99.90
7684;DHT22;3884;48.616;12.872;2022-09-27T07:08:51;10.60;99.90
7684;DHT22;3884;48.616;12.872;2022-09-27T07:11:20;10.60;99.90
7684;DHT22;3884;48.616;12.872;2022-09-27T07:13:48;10.60;99.90
7684;DHT22;3884;48.616;12.872;2022-09-27T07:16:16;10.60;99.90
7684;DHT22;3884;48.616;12.872;2022-09-27T07:18:47;10.60;99.90
7684;DHT22;3884;48.616;12.872;2022-09-27T07:21:13;10.50;99.90
7684;DHT22;3884;48.616;12.872;2022-09-27T07:23:41;10.50;99.90
7684;DHT22;3884;48.616;12.872;2022-09-27T07:26:10;10.50;99.90
7684;DHT22;3884;48.616;12.872;2022-09-27T07:28:37;10.40;99.90
7684;DHT22;3884;48.616;12.872;2022-09-27T07:31:06;10.40;99.90
7684;DHT22;3884;48.616;12.872;2022-09-27T07:33:34;10.30;99.90
7684;DHT22;3884;48.616;12.872;2022-09-27T07:36:07;10.20;99.90
7684;DHT22;3884;48.616;12.872;2022-09-27T07:38:38;9.90;99.90
7684;DHT22;3884;48.616;12.872;2022-09-27T07:41:06;9.90;99.90
7684;DHT22;3884;48.616;12.872;2022-09-27T07:43:33;9.90;99.90
7684;DHT22;3884;48.616;12.872;2022-09-27T07:46:00;9.90;99.90
7684;DHT22;3884;48.616;12.872;2022-09-27T07:48:33;10.00;99.90
7684;DHT22;3884;48.616;12.872;2022-09-27T07:51:12;10.00;99.90
7684;DHT22;3884;48.616;12.872;2022-09-27T07:53:45;10.00;99.90
7684;DHT22;3884;48.616;12.872;2022-09-27T07:56:33;10.10;99.90
7684;DHT22;3884;48.616;12.872;2022-09-27T07:59:02;10.10;99.90
7684;DHT22;3884;48.616;12.872;2022-09-27T08:01:29;10.20;99.90
7684;DHT22;3884;48.616;12.872;2022-09-27T08:03:57;10.30;99.90
7684;DHT22;3884;48.616;12.872;2022-09-27T08:06:26;10.30;99.90
7684;DHT22;3884;48.616;12.872;2022-09-27T08:08:54;10.40;99.90
7684;DHT22;3884;48.616;12.872;2022-09-27T08:11:22;10.40;99.90
7684;DHT22;3884;48.616;12.872;2022-09-27T08:13:50;10.40;99.90
7684;DHT22;3884;48.616;12.872;2022-09-27T08:16:20;10.40;99.90
7684;DHT22;3884;48.616;12.872;2022-09-27T08:19:13;10.60;99.90
7684;DHT22;3884;48.616;12.872;2022-09-27T08:21:54;10.90;99.90
7684;DHT22;3884;48.616;12.872;2022-09-27T08:24:23;11.10;99.90
7684;DHT22;3884;48.616;12.872;2022-09-27T08:27:01;11.30;99.90
7684;DHT22;3884;48.616;12.872;2022-09-27T08:29:44;11.40;99.90
7684;DHT22;3884;48.616;12.872;2022-09-27T08:32:12;11.40;99.90
7684;DHT22;3884;48.616;12.872;2022-09-27T08:34:39;11.50;99.90
7684;DHT22;3884;48.616;12.872;2022-09-27T08:37:09;11.50;99.90
7684;DHT22;3884;48.616;12.872;2022-09-27T08:39:37;11.50;99.90
7684;DHT22;3884;48.616;12.872;2022-09-27T08:42:12;11.50;99.90
7684;DHT22;3884;48.616;12.872;2022-09-27T08:44:46;11.60;99.90
7684;DHT22;3884;48.616;12.872;2022-09-27T08:47:20;11.70;99.90
7684;DHT22;3884;48.616;12.872;2022-09-27T08:49:54;11.90;99.90
7684;DHT22;3884;48.616;12.872;2022-09-27T08:52:28;12.10;99.90
7684;DHT22;3884;48.616;12.872;2022-09-27T08:55:02;12.10;99.90
7684;DHT22;3884;48.616;12.872;2022-09-27T08:57:29;12.30;99.90
7684;DHT22;3884;48.616;12.872;2022-09-27T09:00:02;12.40;99.90
7684;DHT22;3884;48.616;12.872;2022-09-27T09:02:29;12.30;99.90
7684;DHT22;3884;48.616;12.872;2022-09-27T09:05:01;12.20;99.90
7684;DHT22;3884;48.616;12.872;2022-09-27T09:07:41;12.20;99.90
7684;DHT22;3884;48.616;12.872;2022-09-27T09:10:24;12.20;99.90
7684;DHT22;3884;48.616;12.872;2022-09-27T09:13:20;12.10;99.90
7684;DHT22;3884;48.616;12.872;2022-09-27T09:16:03;12.00;99.90
7684;DHT22;3884;48.616;12.872;2022-09-27T09:18:52;12.10;99.90
7684;DHT22;3884;48.616;12.872;2022-09-27T09:21:45;12.10;99.90
7684;DHT22;3884;48.616;12.872;2022-09-27T09:24:28;12.10;99.90
7684;DHT22;3884;48.616;12.872;2022-09-27T09:27:01;12.20;59.60
7684;DHT22;3884;48.616;12.872;2022-09-27T09:30:01;12.10;39.90
7684;DHT22;3884;48.616;12.872;2022-09-27T09:32:38;12.10;82.60
7684;DHT22;3884;48.616;12.872;2022-09-27T09:35:13;11.90;99.90
7684;DHT22;3884;48.616;12.872;2022-09-27T09:37:44;11.80;99.90
7684;DHT22;3884;48.616;12.872;2022-09-27T09:40:19;11.70;99.90
7684;DHT22;3884;48.616;12.872;2022-09-27T09:42:50;11.40;99.90
7684;DHT22;3884;48.616;12.872;2022-09-27T09:45:21;11.20;99.90
7684;DHT22;3884;48.616;12.872;2022-09-27T09:47:54;11.00;99.90
7684;DHT22;3884;48.616;12.872;2022-09-27T09:50:25;10.90;99.90
7684;DHT22;3884;48.616;12.872;2022-09-27T09:52:59;10.80;99.90
7684;DHT22;3884;48.616;12.872;2022-09-27T09:55:34;10.80;99.90
7684;DHT22;3884;48.616;12.872;2022-09-27T09:58:07;10.90;99.90
7684;DHT22;3884;48.616;12.872;2022-09-27T10:00:44;10.90;99.90
7684;DHT22;3884;48.616;12.872;2022-09-27T10:03:12;10.90;99.90
7684;DHT22;3884;48.616;12.872;2022-09-27T10:05:41;11.00;99.90
7684;DHT22;3884;48.616;12.872;2022-09-27T10:08:14;11.10;99.90
7684;DHT22;3884;48.616;12.872;2022-09-27T10:10:44;11.10;99.90
7684;DHT22;3884;48.616;12.872;2022-09-27T10:13:33;11.00;99.90
7684;DHT22;3884;48.616;12.872;2022-09-27T10:16:04;11.00;99.90
7684;DHT22;3884;48.616;12.872;2022-09-27T10:18:35;11.10;99.90
7684;DHT22;3884;48.616;12.872;2022-09-27T10:21:06;11.10;99.90
7684;DHT22;3884;48.616;12.872;2022-09-27T10:23:33;11.10;99.90
7684;DHT22;3884;48.616;12.872;2022-09-27T10:26:17;11.10;99.90
7684;DHT22;3884;48.616;12.872;2022-09-27T10:28:49;11.40;99.90
7684;DHT22;3884;48.616;12.872;2022-09-27T10:31:22;11.50;99.90
7684;DHT22;3884;48.616;12.872;2022-09-27T10:34:23;11.60;99.90
7684;DHT22;3884;48.616;12.872;2022-09-27T10:37:05;11.70;99.90
7684;DHT22;3884;48.616;12.872;2022-09-27T10:39:33;11.80;99.90
7684;DHT22;3884;48.616;12.872;2022-09-27T10:42:19;11.90;99.90
7684;DHT22;3884;48.616;12.872;2022-09-27T10:44:46;12.10;99.90
7684;DHT22;3884;48.616;12.872;2022-09-27T10:47:26;12.00;99.90
7684;DHT22;3884;48.616;12.872;2022-09-27T10:50:03;12.20;99.90
7684;DHT22;3884;48.616;12.872;2022-09-27T10:52:42;12.40;99.90
7684;DHT22;3884;48.616;12.872;2022-09-27T10:55:18;12.60;68.20
7684;DHT22;3884;48.616;12.872;2022-09-27T10:57:52;12.50;93.20
7684;DHT22;3884;48.616;12.872;2022-09-27T11:00:22;12.60;53.40
7684;DHT22;3884;48.616;12.872;2022-09-27T11:02:52;12.70;1.00
7684;DHT22;3884;48.616;12.872;2022-09-27T11:05:32;12.60;1.00
7684;DHT22;3884;48.616;12.872;2022-09-27T11:08:17;12.40;99.90
7684;DHT22;3884;48.616;12.872;2022-09-27T11:11:03;12.30;1.00
7684;DHT22;3884;48.616;12.872;2022-09-27T11:13:33;12.40;1.00
7684;DHT22;3884;48.616;12.872;2022-09-27T11:16:18;12.40;1.00
7684;DHT22;3884;48.616;12.872;2022-09-27T11:18:55;12.40;97.20
7684;DHT22;3884;48.616;12.872;2022-09-27T11:21:30;12.20;1.00
7684;DHT22;3884;48.616;12.872;2022-09-27T11:24:09;11.40;32.10
7684;DHT22;3884;48.616;12.872;2022-09-27T11:26:49;10.90;99.90
7684;DHT22;3884;48.616;12.872;2022-09-27T11:29:26;10.80;99.90
7684;DHT22;3884;48.616;12.872;2022-09-27T11:32:43;10.90;99.90
7684;DHT22;3884;48.616;12.872;2022-09-27T11:35:43;11.00;99.90
7684;DHT22;3884;48.616;12.872;2022-09-27T11:38:17;11.10;99.90
7684;DHT22;3884;48.616;12.872;2022-09-27T11:41:02;11.20;99.90
7684;DHT22;3884;48.616;12.872;2022-09-27T11:43:50;11.30;99.90
7684;DHT22;3884;48.616;12.872;2022-09-27T11:46:23;11.40;99.90
7684;DHT22;3884;48.616;12.872;2022-09-27T11:49:08;11.40;99.90
7684;DHT22;3884;48.616;12.872;2022-09-27T11:51:55;11.50;99.90
7684;DHT22;3884;48.616;12.872;2022-09-27T11:54:45;11.60;99.90
7684;DHT22;3884;48.616;12.872;2022-09-27T11:57:21;11.60;99.90
7684;DHT22;3884;48.616;12.872;2022-09-27T12:00:07;11.70;99.90
7684;DHT22;3884;48.616;12.872;2022-09-27T12:06:06;11.80;99.90
7684;DHT22;3884;48.616;12.872;2022-09-27T12:08:47;11.70;1.00
7684;DHT22;3884;48.616;12.872;2022-09-27T12:11:22;11.60;99.90
7684;DHT22;3884;48.616;12.872;2022-09-27T12:13:56;11.60;99.80
7684;DHT22;3884;48.616;12.872;2022-09-27T12:16:25;11.50;96.40
7684;DHT22;3884;48.616;12.872;2022-09-27T12:18:53;11.40;76.40
7684;DHT22;3884;48.616;12.872;2022-09-27T12:21:50;11.40;99.90
7684;DHT22;3884;48.616;12.872;2022-09-27T12:24:19;11.30;99.90
7684;DHT22;3884;48.616;12.872;2022-09-27T12:27:08;11.00;99.90
7684;DHT22;3884;48.616;12.872;2022-09-27T12:29:38;10.50;99.90
7684;DHT22;3884;48.616;12.872;2022-09-27T12:32:14;10.50;99.90
7684;DHT22;3884;48.616;12.872;2022-09-27T12:34:53;10.60;99.90
7684;DHT22;3884;48.616;12.872;2022-09-27T12:37:26;10.70;99.90
7684;DHT22;3884;48.616;12.872;2022-09-27T12:40:01;10.80;99.90
7684;DHT22;3884;48.616;12.872;2022-09-27T12:42:37;11.00;99.90
7684;DHT22;3884;48.616;12.872;2022-09-27T12:45:14;11.10;99.90
7684;DHT22;3884;48.616;12.872;2022-09-27T12:47:54;11.30;99.90
7684;DHT22;3884;48.616;12.872;2022-09-27T12:50:31;11.40;99.90
7684;DHT22;3884;48.616;12.872;2022-09-27T12:53:07;11.60;99.90
7684;DHT22;3884;48.616;12.872;2022-09-27T12:56:02;11.70;99.90
7684;DHT22;3884;48.616;12.872;2022-09-27T12:59:07;11.70;99.90
7684;DHT22;3884;48.616;12.872;2022-09-27T13:04:50;12.10;1.00
7684;DHT22;3884;48.616;12.872;2022-09-27T13:07:32;12.20;1.00
7684;DHT22;3884;48.616;12.872;2022-09-27T13:13:18;12.40;1.00
7684;DHT22;3884;48.616;12.872;2022-09-27T13:15:46;12.70;1.00
7684;DHT22;3884;48.616;12.872;2022-09-27T13:18:48;12.80;99.90
7684;DHT22;3884;48.616;12.872;2022-09-27T13:21:53;12.60;99.90
7684;DHT22;3884;48.616;12.872;2022-09-27T13:24:48;12.40;1.00
7684;DHT22;3884;48.616;12.872;2022-09-27T13:27:53;12.20;1.00
7684;DHT22;3884;48.616;12.872;2022-09-27T13:30:44;12.00;99.90
7684;DHT22;3884;48.616;12.872;2022-09-27T13:33:31;11.90;78.40
7684;DHT22;3884;48.616;12.872;2022-09-27T13:36:29;11.70;99.90
7684;DHT22;3884;48.616;12.872;2022-09-27T13:39:04;11.50;99.90
7684;DHT22;3884;48.616;12.872;2022-09-27T13:42:20;11.10;99.90
7684;DHT22;3884;48.616;12.872;2022-09-27T13:45:16;10.80;99.90
7684;DHT22;3884;48.616;12.872;2022-09-27T13:47:47;10.70;99.90
7684;DHT22;3884;48.616;12.872;2022-09-27T13:50:25;10.80;99.90
7684;DHT22;3884;48.616;12.872;2022-09-27T13:53:05;11.20;99.90
7684;DHT22;3884;48.616;12.872;2022-09-27T13:55:44;11.40;99.90
7684;DHT22;3884;48.616;12.872;2022-09-27T13:58:53;11.40;99.90
7684;DHT22;3884;48.616;12.872;2022-09-27T14:01:44;11.20;99.90
7684;DHT22;3884;48.616;12.872;2022-09-27T14:04:17;11.30;99.90
7684;DHT22;3884;48.616;12.872;2022-09-27T14:06:47;11.60;99.90
7684;DHT22;3884;48.616;12.872;2022-09-27T14:09:19;11.80;99.90
7684;DHT22;3884;48.616;12.872;2022-09-27T14:11:54;12.00;1.00
7684;DHT22;3884;48.616;12.872;2022-09-27T14:14:25;12.10;1.00
7684;DHT22;3884;48.616;12.872;2022-09-27T14:16:58;12.20;1.00
7684;DHT22;3884;48.616;12.872;2022-09-27T14:19:26;12.30;1.00
7684;DHT22;3884;48.616;12.872;2022-09-27T14:21:54;12.40;1.00
7684;DHT22;3884;48.616;12.872;2022-09-27T14:24:30;12.40;1.00
7684;DHT22;3884;48.616;12.872;2022-09-27T14:27:08;12.50;1.00
7684;DHT22;3884;48.616;12.872;2022-09-27T14:29:41;12.50;1.00
7684;DHT22;3884;48.616;12.872;2022-09-27T14:32:14;12.50;99.90
7684;DHT22;3884;48.616;12.872;2022-09-27T14:35:06;12.70;1.00
7684;DHT22;3884;48.616;12.872;2022-09-27T14:37:53;12.80;71.30
7684;DHT22;3884;48.616;12.872;2022-09-27T14:40:21;12.90;4.00
7684;DHT22;3884;48.616;12.872;2022-09-27T14:42:51;12.90;1.00
7684;DHT22;3884;48.616;12.872;2022-09-27T14:45:20;12.60;1.00
7684;DHT22;3884;48.616;12.872;2022-09-27T14:47:50;12.70;1.00
7684;DHT22;3884;48.616;12.872;2022-09-27T14:50:19;12.80;99.90
7684;DHT22;3884;48.616;12.872;2022-09-27T14:52:47;12.90;1.00
7684;DHT22;3884;48.616;12.872;2022-09-27T14:55:18;13.10;99.90
7684;DHT22;3884;48.616;12.872;2022-09-27T14:57:48;13.10;99.90
7684;DHT22;3884;48.616;12.872;2022-09-27T15:00:18;13.10;99.90
7684;DHT22;3884;48.616;12.872;2022-09-27T15:02:48;13.40;1.00
7684;DHT22;3884;48.616;12.872;2022-09-27T15:05:21;13.10;99.90
7684;DHT22;3884;48.616;12.872;2022-09-27T15:07:49;12.80;99.90
7684;DHT22;3884;48.616;12.872;2022-09-27T15:10:17;12.60;1.00
7684;DHT22;3884;48.616;12.872;2022-09-27T15:12:45;12.50;1.00
7684;DHT22;3884;48.616;12.872;2022-09-27T15:15:16;12.60;1.00
7684;DHT22;3884;48.616;12.872;2022-09-27T15:17:45;12.90;1.00
7684;DHT22;3884;48.616;12.872;2022-09-27T15:20:21;13.30;99.90
7684;DHT22;3884;48.616;12.872;2022-09-27T15:22:52;13.60;99.90
7684;DHT22;3884;48.616;12.872;2022-09-27T15:25:26;13.80;99.90
7684;DHT22;3884;48.616;12.872;2022-09-27T15:27:58;13.50;99.90
7684;DHT22;3884;48.616;12.872;2022-09-27T15:30:27;13.20;99.90
7684;DHT22;3884;48.616;12.872;2022-09-27T15:32:59;13.00;99.90
7684;DHT22;3884;48.616;12.872;2022-09-27T15:35:30;13.00;1.00
7684;DHT22;3884;48.616;12.872;2022-09-27T15:38:25;12.90;99.90
7684;DHT22;3884;48.616;12.872;2022-09-27T15:40:59;12.70;1.00
7684;DHT22;3884;48.616;12.872;2022-09-27T15:43:28;12.50;1.00
7684;DHT22;3884;48.616;12.872;2022-09-27T15:45:57;12.40;1.00
7684;DHT22;3884;48.616;12.872;2022-09-27T15:48:27;12.30;92.30
7684;DHT22;3884;48.616;12.872;2022-09-27T15:50:55;12.20;99.90
7684;DHT22;3884;48.616;12.872;2022-09-27T15:53:42;12.10;99.90
7684;DHT22;3884;48.616;12.872;2022-09-27T15:56:12;12.00;99.90
7684;DHT22;3884;48.616;12.872;2022-09-27T15:58:40;11.90;46.90
7684;DHT22;3884;48.616;12.872;2022-09-27T16:01:18;11.90;45.90
7684;DHT22;3884;48.616;12.872;2022-09-27T16:03:46;11.90;1.00
7684;DHT22;3884;48.616;12.872;2022-09-27T16:06:15;11.70;99.90
7684;DHT22;3884;48.616;12.872;2022-09-27T16:08:43;11.50;21.10
7684;DHT22;3884;48.616;12.872;2022-09-27T16:11:13;11.20;1.00
7684;DHT22;3884;48.616;12.872;2022-09-27T16:13:41;11.00;99.90
7684;DHT22;3884;48.616;12.872;2022-09-27T16:16:13;10.80;1.00
7684;DHT22;3884;48.616;12.872;2022-09-27T16:18:41;10.70;1.00
7684;DHT22;3884;48.616;12.872;2022-09-27T16:21:08;10.60;99.90
7684;DHT22;3884;48.616;12.872;2022-09-27T16:23:36;10.60;1.00
7684;DHT22;3884;48.616;12.872;2022-09-27T16:26:03;10.50;95.30
7684;DHT22;3884;48.616;12.872;2022-09-27T16:28:31;10.40;32.60
7684;DHT22;3884;48.616;12.872;2022-09-27T16:31:01;10.40;99.90
7684;DHT22;3884;48.616;12.872;2022-09-27T16:33:28;10.30;99.90
7684;DHT22;3884;48.616;12.872;2022-09-27T16:35:57;10.10;99.90
7684;DHT22;3884;48.616;12.872;2022-09-27T16:38:27;10.10;99.90
7684;DHT22;3884;48.616;12.872;2022-09-27T16:41:00;10.10;99.90
7684;DHT22;3884;48.616;12.872;2022-09-27T16:43:28;10.20;99.90
7684;DHT22;3884;48.616;12.872;2022-09-27T16:46:03;10.20;99.90
7684;DHT22;3884;48.616;12.872;2022-09-27T16:48:30;10.10;99.90
7684;DHT22;3884;48.616;12.872;2022-09-27T16:51:02;10.20;99.90
7684;DHT22;3884;48.616;12.872;2022-09-27T16:53:47;10.20;99.90